sensor_id;sensor_type;location;lat;lon;timestamp;P1;P2;P0
45112;PMS5003;30873;53.908;27.576;2023-07-02T00:02:35;13.9;11.5;8.2
45112;PMS5003;30873;53.908;27.576;2023-07-02T00:07:35;15.9;15.1;11.2
45112;PMS5003;30873;53.908;27.576;2023-07-02T00:11:57;13.3;12.3;9
45112;PMS5003;30873;53.908;27.576;2023-07-02T00:17:17;14.9;13.8;9.6
45112;PMS5003;30873;53.908;27.576;2023-07-02T00:22:12;17;15.6;11.4
45112;PMS5003;30873;53.908;27.576;2023-07-02T00:27:19;18.4;16.7;12.6
45112;PMS5003;30873;53.908;27.576;2023-07-02T00:32:19;22.8;21.8;17.4
45112;PMS5003;30873;53.908;27.576;2023-07-02T00:37:49;25;24.1;20
45112;PMS5003;30873;53.908;27.576;2023-07-02T00:42:33;29.7;28.4;23
45112;PMS5003;30873;53.908;27.576;2023-07-02T00:47:49;27.7;26;21.5
45112;PMS5003;30873;53.908;27.576;2023-07-02T00:52:17;24.4;23.6;19.8
45112;PMS5003;30873;53.908;27.576;2023-07-02T00:57:17;23.7;22;17.9
45112;PMS5003;30873;53.908;27.576;2023-07-02T01:02:05;19.4;17.6;13.4
45112;PMS5003;30873;53.908;27.576;2023-07-02T01:07:19;16.7;15.4;11.7
45112;PMS5003;30873;53.908;27.576;2023-07-02T01:12:06;18.7;16.5;12.3
45112;PMS5003;30873;53.908;27.576;2023-07-02T01:17:34;17.7;16.8;12.6
45112;PMS5003;30873;53.908;27.576;2023-07-02T01:22:49;18.1;16.7;12.7
45112;PMS5003;30873;53.908;27.576;2023-07-02T01:26:57;16.8;15.2;11.1
45112;PMS5003;30873;53.908;27.576;2023-07-02T01:32:17;19;18.2;14.4
45112;PMS5003;30873;53.908;27.576;2023-07-02T01:37:49;25.5;23.8;19.7
45112;PMS5003;30873;53.908;27.576;2023-07-02T01:42:19;21.2;19.6;15
45112;PMS5003;30873;53.908;27.576;2023-07-02T01:47:19;19.1;17.7;12.5
45112;PMS5003;30873;53.908;27.576;2023-07-02T01:52:33;19.2;16.8;13.3
45112;PMS5003;30873;53.908;27.576;2023-07-02T01:57:33;16.5;15.3;11
45112;PMS5003;30873;53.908;27.576;2023-07-02T02:02:19;13.7;12.9;9.6
45112;PMS5003;30873;53.908;27.576;2023-07-02T02:06:57;14.5;12.1;8.9
45112;PMS5003;30873;53.908;27.576;2023-07-02T02:12:49;12.7;11.5;8.1
45112;PMS5003;30873;53.908;27.576;2023-07-02T02:17:49;14.8;12.5;8.7
45112;PMS5003;30873;53.908;27.576;2023-07-02T02:22:19;15.8;13.1;9.2
45112;PMS5003;30873;53.908;27.576;2023-07-02T02:27:17;14.2;13.4;9.3
45112;PMS5003;30873;53.908;27.576;2023-07-02T02:32:49;15.7;14.8;9.6
45112;PMS5003;30873;53.908;27.576;2023-07-02T02:36:57;18.3;15.7;10.4
45112;PMS5003;30873;53.908;27.576;2023-07-02T02:42:49;17.9;15.7;10.3
45112;PMS5003;30873;53.908;27.576;2023-07-02T02:47:33;16.8;14.9;10.2
45112;PMS5003;30873;53.908;27.576;2023-07-02T02:52:07;17;15.2;10.5
45112;PMS5003;30873;53.908;27.576;2023-07-02T02:57:36;17;15.5;10.6
45112;PMS5003;30873;53.908;27.576;2023-07-02T03:02:33;18.9;15.9;11
45112;PMS5003;30873;53.908;27.576;2023-07-02T03:07:09;19.8;17.7;12.3
45112;PMS5003;30873;53.908;27.576;2023-07-02T03:12:06;19.1;18.2;13.1
45112;PMS5003;30873;53.908;27.576;2023-07-02T03:17:49;21.5;19.1;12.4
45112;PMS5003;30873;53.908;27.576;2023-07-02T03:22:19;19.4;17.4;11.8
45112;PMS5003;30873;53.908;27.576;2023-07-02T03:27:50;21.8;19.6;13.4
45112;PMS5003;30873;53.908;27.576;2023-07-02T03:32:49;21.9;19.4;13.1
45112;PMS5003;30873;53.908;27.576;2023-07-02T03:37:33;21.7;20.5;13.6
45112;PMS5003;30873;53.908;27.576;2023-07-02T03:42:11;20.1;18.4;12.4
45112;PMS5003;30873;53.908;27.576;2023-07-02T03:46:57;21.3;18.5;12.8
45112;PMS5003;30873;53.908;27.576;2023-07-02T03:52:49;24;22.2;15.6
45112;PMS5003;30873;53.908;27.576;2023-07-02T03:57:35;21.4;18.8;12.2
45112;PMS5003;30873;53.908;27.576;2023-07-02T04:02:49;20.6;18.5;13
45112;PMS5003;30873;53.908;27.576;2023-07-02T04:07:49;18.4;16.7;11
45112;PMS5003;30873;53.908;27.576;2023-07-02T04:12:49;22.1;20.2;14.7
45112;PMS5003;30873;53.908;27.576;2023-07-02T04:17:11;34.4;30.6;24.1
45112;PMS5003;30873;53.908;27.576;2023-07-02T04:22:14;24.1;22.5;17
45112;PMS5003;30873;53.908;27.576;2023-07-02T04:27:35;17.3;15.9;11.1
45112;PMS5003;30873;53.908;27.576;2023-07-02T04:32:36;17;14.8;10.6
45112;PMS5003;30873;53.908;27.576;2023-07-02T04:37:34;17.3;15.8;10.7
45112;PMS5003;30873;53.908;27.576;2023-07-02T04:41:57;18.4;15.4;10.5
45112;PMS5003;30873;53.908;27.576;2023-07-02T04:47:12;15.9;14;10.1
45112;PMS5003;30873;53.908;27.576;2023-07-02T04:52:36;15.9;14.3;9.9
45112;PMS5003;30873;53.908;27.576;2023-07-02T04:57:19;15;13;8.3
45112;PMS5003;30873;53.908;27.576;2023-07-02T05:02:50;17.3;15.7;11.3
45112;PMS5003;30873;53.908;27.576;2023-07-02T05:07:36;22.5;19.7;14.3
45112;PMS5003;30873;53.908;27.576;2023-07-02T05:12:50;22.6;20.1;13.2
45112;PMS5003;30873;53.908;27.576;2023-07-02T05:17:17;20.5;18;12.5
45112;PMS5003;30873;53.908;27.576;2023-07-02T05:21:58;19.3;16.6;11.1
45112;PMS5003;30873;53.908;27.576;2023-07-02T05:27:34;14.6;13.3;9.1
45112;PMS5003;30873;53.908;27.576;2023-07-02T05:32:06;10.3;9.1;6.2
45112;PMS5003;30873;53.908;27.576;2023-07-02T05:37:12;8;7.2;5.3
45112;PMS5003;30873;53.908;27.576;2023-07-02T05:42:20;8.2;7.8;5.2
45112;PMS5003;30873;53.908;27.576;2023-07-02T05:47:50;8.8;6.9;4.9
45112;PMS5003;30873;53.908;27.576;2023-07-02T05:52:18;8.1;7.2;5.2
45112;PMS5003;30873;53.908;27.576;2023-07-02T05:56:58;8.9;8;5.3
45112;PMS5003;30873;53.908;27.576;2023-07-02T06:02:48;8.3;7.5;5.1
45112;PMS5003;30873;53.908;27.576;2023-07-02T06:07:20;10.3;8.6;5.7
45112;PMS5003;30873;53.908;27.576;2023-07-02T06:11:58;9.5;8.5;5.4
45112;PMS5003;30873;53.908;27.576;2023-07-02T06:17:34;10;8.7;5.7
45112;PMS5003;30873;53.908;27.576;2023-07-02T06:22:34;9.1;8.2;5.8
45112;PMS5003;30873;53.908;27.576;2023-07-02T06:27:20;8.9;8.2;6.2
45112;PMS5003;30873;53.908;27.576;2023-07-02T06:32:06;9.9;8.9;6
45112;PMS5003;30873;53.908;27.576;2023-07-02T06:37:34;10.4;9.4;6.5
45112;PMS5003;30873;53.908;27.576;2023-07-02T06:42:34;11.7;9.9;6.6
45112;PMS5003;30873;53.908;27.576;2023-07-02T06:47:50;12;10.2;6.3
45112;PMS5003;30873;53.908;27.576;2023-07-02T06:51:58;10.5;9.2;6.5
45112;PMS5003;30873;53.908;27.576;2023-07-02T06:57:50;9.9;9.2;6.1
45112;PMS5003;30873;53.908;27.576;2023-07-02T07:02:06;11.3;10.6;7.2
45112;PMS5003;30873;53.908;27.576;2023-07-02T07:07:50;12.4;10.8;6.9
45112;PMS5003;30873;53.908;27.576;2023-07-02T07:12:22;12.6;10.7;7.3
45112;PMS5003;30873;53.908;27.576;2023-07-02T07:17:34;11.9;10.2;7.2
45112;PMS5003;30873;53.908;27.576;2023-07-02T07:22:36;11.8;10.8;7.2
45112;PMS5003;30873;53.908;27.576;2023-07-02T07:27:34;11.5;10.2;6.8
45112;PMS5003;30873;53.908;27.576;2023-07-02T07:32:06;13.9;11.7;7.6
45112;PMS5003;30873;53.908;27.576;2023-07-02T07:36:58;12.6;11.4;7.3
45112;PMS5003;30873;53.908;27.576;2023-07-02T07:42:50;13.9;11.9;7.9
45112;PMS5003;30873;53.908;27.576;2023-07-02T07:47:20;13;11.3;7.9
45112;PMS5003;30873;53.908;27.576;2023-07-02T07:52:50;12.9;11.5;7.8
45112;PMS5003;30873;53.908;27.576;2023-07-02T07:57:36;13.5;12.6;8.4
45112;PMS5003;30873;53.908;27.576;2023-07-02T08:02:34;14.2;13.1;8.3
45112;PMS5003;30873;53.908;27.576;2023-07-02T08:07:06;15.5;12.7;7.9
45112;PMS5003;30873;53.908;27.576;2023-07-02T08:12:12;14.7;12.9;8.6
45112;PMS5003;30873;53.908;27.576;2023-07-02T08:17:50;16;13.6;8.9
45112;PMS5003;30873;53.908;27.576;2023-07-02T08:22:37;18.2;15;9.6
45112;PMS5003;30873;53.908;27.576;2023-07-02T08:27:20;16.3;14.2;9.3
45112;PMS5003;30873;53.908;27.576;2023-07-02T08:32:50;16.7;14.5;9.4
45112;PMS5003;30873;53.908;27.576;2023-07-02T08:37:50;15.2;13.3;8
45112;PMS5003;30873;53.908;27.576;2023-07-02T08:42:22;14.6;13.1;8.4
45112;PMS5003;30873;53.908;27.576;2023-07-02T08:47:10;15.3;13.3;8.5
45112;PMS5003;30873;53.908;27.576;2023-07-02T08:52:36;14.9;13.4;8.9
45112;PMS5003;30873;53.908;27.576;2023-07-02T08:57:36;14.9;13.5;8.3
45112;PMS5003;30873;53.908;27.576;2023-07-02T09:02:29;16.5;14.1;10
45112;PMS5003;30873;53.908;27.576;2023-07-02T09:07:42;12.5;12;7.1
45112;PMS5003;30873;53.908;27.576;2023-07-02T09:11:58;14.9;12.7;8
45112;PMS5003;30873;53.908;27.576;2023-07-02T09:17:14;15.9;13;8.2
45112;PMS5003;30873;53.908;27.576;2023-07-02T09:22:20;14.8;12.8;7.8
45112;PMS5003;30873;53.908;27.576;2023-07-02T09:27:50;14.9;12.6;7.4
45112;PMS5003;30873;53.908;27.576;2023-07-02T09:32:00;14.6;12.6;7.7
45112;PMS5003;30873;53.908;27.576;2023-07-02T09:37:50;15.1;13.6;8.1
45112;PMS5003;30873;53.908;27.576;2023-07-02T09:42:18;15.1;13.8;8.6
45112;PMS5003;30873;53.908;27.576;2023-07-02T09:46:58;17.3;15.2;8.9
45112;PMS5003;30873;53.908;27.576;2023-07-02T09:52:06;16.8;14.6;9.7
45112;PMS5003;30873;53.908;27.576;2023-07-02T09:57:20;16.6;14.9;9.3
45112;PMS5003;30873;53.908;27.576;2023-07-02T10:02:07;15.7;14.6;9
45112;PMS5003;30873;53.908;27.576;2023-07-02T10:07:50;18.8;17.4;10.9
45112;PMS5003;30873;53.908;27.576;2023-07-02T10:12:50;25.8;23.6;17.5
45112;PMS5003;30873;53.908;27.576;2023-07-02T10:17:25;20.8;18.7;12.8
45112;PMS5003;30873;53.908;27.576;2023-07-02T10:22:01;21.2;19;13.4
45112;PMS5003;30873;53.908;27.576;2023-07-02T10:27:50;14.7;13.6;8.4
45112;PMS5003;30873;53.908;27.576;2023-07-02T10:32:50;16.5;15.1;9.7
45112;PMS5003;30873;53.908;27.576;2023-07-02T10:37:20;15.7;13.5;8.4
45112;PMS5003;30873;53.908;27.576;2023-07-02T10:42:18;14.8;13.9;9.3
45112;PMS5003;30873;53.908;27.576;2023-07-02T10:47:50;14.7;14.2;9.2
45112;PMS5003;30873;53.908;27.576;2023-07-02T10:52:06;17.9;16.5;11.7
45112;PMS5003;30873;53.908;27.576;2023-07-02T10:57:06;15.6;14.4;8.7
45112;PMS5003;30873;53.908;27.576;2023-07-02T11:02:34;41.5;35.7;27.7
45112;PMS5003;30873;53.908;27.576;2023-07-02T11:07:34;37.3;33;24.9
45112;PMS5003;30873;53.908;27.576;2023-07-02T11:12:50;27.1;24.8;17.5
45112;PMS5003;30873;53.908;27.576;2023-07-02T11:17:24;20.9;19.5;13.8
45112;PMS5003;30873;53.908;27.576;2023-07-02T11:22:50;16.7;15.1;9.5
45112;PMS5003;30873;53.908;27.576;2023-07-02T11:27:06;16;13.8;8.2
45112;PMS5003;30873;53.908;27.576;2023-07-02T11:32:50;15.7;14.2;9.1
45112;PMS5003;30873;53.908;27.576;2023-07-02T11:37:34;14.3;13.1;7.9
45112;PMS5003;30873;53.908;27.576;2023-07-02T11:42:34;16.3;14.5;9.1
45112;PMS5003;30873;53.908;27.576;2023-07-02T11:47:37;15.7;14;9.1
45112;PMS5003;30873;53.908;27.576;2023-07-02T11:52:34;30.8;28.5;20.9
45112;PMS5003;30873;53.908;27.576;2023-07-02T11:57:18;30;25.8;18.3
45112;PMS5003;30873;53.908;27.576;2023-07-02T12:01:58;17.7;16.8;10.6
45112;PMS5003;30873;53.908;27.576;2023-07-02T12:07:50;20.3;17.1;10.9
45112;PMS5003;30873;53.908;27.576;2023-07-02T12:11:58;20.1;17.6;10.2
45112;PMS5003;30873;53.908;27.576;2023-07-02T12:17:50;19.2;16.6;10.2
45112;PMS5003;30873;53.908;27.576;2023-07-02T12:22:50;18.2;16;9.9
45112;PMS5003;30873;53.908;27.576;2023-07-02T12:27:34;18.6;16;10
45112;PMS5003;30873;53.908;27.576;2023-07-02T12:32:06;16.9;14.6;9.3
45112;PMS5003;30873;53.908;27.576;2023-07-02T12:36:58;15.8;12.8;8.5
45112;PMS5003;30873;53.908;27.576;2023-07-02T12:42:50;15.4;13.1;8.7
45112;PMS5003;30873;53.908;27.576;2023-07-02T12:47:36;17;14.4;9.2
45112;PMS5003;30873;53.908;27.576;2023-07-02T12:52:20;15.3;13.9;9.1
45112;PMS5003;30873;53.908;27.576;2023-07-02T12:57:50;15.5;14.2;9.4
45112;PMS5003;30873;53.908;27.576;2023-07-02T13:02:50;16.1;14.7;9.8
45112;PMS5003;30873;53.908;27.576;2023-07-02T13:06:58;16.7;15.6;10.5
45112;PMS5003;30873;53.908;27.576;2023-07-02T13:12:20;19.4;18.4;13.4
45112;PMS5003;30873;53.908;27.576;2023-07-02T13:17:36;13.9;12.7;9.4
45112;PMS5003;30873;53.908;27.576;2023-07-02T13:22:36;13.1;12.1;8.4
45112;PMS5003;30873;53.908;27.576;2023-07-02T13:27:34;13.8;13.2;9
45112;PMS5003;30873;53.908;27.576;2023-07-02T13:32:06;13.9;13.1;9
45112;PMS5003;30873;53.908;27.576;2023-07-02T13:37:20;12.2;11.3;8.2
45112;PMS5003;30873;53.908;27.576;2023-07-02T13:42:06;12.8;11.6;8.6
45112;PMS5003;30873;53.908;27.576;2023-07-02T13:47:20;12.9;11.4;8.2
45112;PMS5003;30873;53.908;27.576;2023-07-02T13:52:50;12.8;12;8.4
45112;PMS5003;30873;53.908;27.576;2023-07-02T13:57:34;19.2;17.7;13.6
45112;PMS5003;30873;53.908;27.576;2023-07-02T14:02:50;12.4;11.6;8.5
45112;PMS5003;30873;53.908;27.576;2023-07-02T14:06:58;11.5;10.7;7.6
45112;PMS5003;30873;53.908;27.576;2023-07-02T14:11:58;14.6;12.9;9.5
45112;PMS5003;30873;53.908;27.576;2023-07-02T14:17:20;12.8;11.7;7.9
45112;PMS5003;30873;53.908;27.576;2023-07-02T14:22:20;12.3;11.5;7.9
45112;PMS5003;30873;53.908;27.576;2023-07-02T14:26:58;13.3;12.3;8.9
45112;PMS5003;30873;53.908;27.576;2023-07-02T14:32:12;15.3;14.6;11.2
45112;PMS5003;30873;53.908;27.576;2023-07-02T14:37:50;14.5;13.3;8.9
45112;PMS5003;30873;53.908;27.576;2023-07-02T14:42:18;13.2;12.3;8.5
45112;PMS5003;30873;53.908;27.576;2023-07-02T14:47:06;12.9;11.8;8.6
45112;PMS5003;30873;53.908;27.576;2023-07-02T14:52:34;14.9;13.7;9.8
45112;PMS5003;30873;53.908;27.576;2023-07-02T14:57:50;14.8;13.6;8.7
45112;PMS5003;30873;53.908;27.576;2023-07-02T15:02:20;15.1;13.7;9.5
45112;PMS5003;30873;53.908;27.576;2023-07-02T15:07:18;13.4;12.2;8.4
45112;PMS5003;30873;53.908;27.576;2023-07-02T15:12:50;13.7;13.1;8.9
45112;PMS5003;30873;53.908;27.576;2023-07-02T15:16:58;15.3;14.1;9.9
45112;PMS5003;30873;53.908;27.576;2023-07-02T15:22:18;15.1;13.6;9.3
45112;PMS5003;30873;53.908;27.576;2023-07-02T15:27:34;15.5;13.9;9.4
45112;PMS5003;30873;53.908;27.576;2023-07-02T15:32:34;15.9;14.3;9.1
45112;PMS5003;30873;53.908;27.576;2023-07-02T15:37:50;17.4;15.4;9.8
45112;PMS5003;30873;53.908;27.576;2023-07-02T15:42:18;15.9;14.3;9.5
45112;PMS5003;30873;53.908;27.576;2023-07-02T15:47:50;18;14.9;10.5
45112;PMS5003;30873;53.908;27.576;2023-07-02T15:52:20;17;14.8;10.4
45112;PMS5003;30873;53.908;27.576;2023-07-02T15:57:49;17.2;14.8;10.5
45112;PMS5003;30873;53.908;27.576;2023-07-02T16:02:00;16.8;14.7;10.7
45112;PMS5003;30873;53.908;27.576;2023-07-02T16:07:34;16.8;15.1;10
45112;PMS5003;30873;53.908;27.576;2023-07-02T16:12:22;17.8;16.3;10.7
45112;PMS5003;30873;53.908;27.576;2023-07-02T16:17:34;16.9;15.6;10.4
45112;PMS5003;30873;53.908;27.576;2023-07-02T16:22:18;18;16.2;10.5
45112;PMS5003;30873;53.908;27.576;2023-07-02T16:27:07;18.8;16.6;9.7
45112;PMS5003;30873;53.908;27.576;2023-07-02T16:32:50;14.3;13.2;7.8
45112;PMS5003;30873;53.908;27.576;2023-07-02T16:37:20;7.1;6.4;4
45112;PMS5003;30873;53.908;27.576;2023-07-02T16:42:08;5.6;5;3.1
45112;PMS5003;30873;53.908;27.576;2023-07-02T16:47:50;5.2;4.9;3.4
45112;PMS5003;30873;53.908;27.576;2023-07-02T16:52:34;5.7;5.4;3.7
45112;PMS5003;30873;53.908;27.576;2023-07-02T16:56:58;5.8;5.6;4
45112;PMS5003;30873;53.908;27.576;2023-07-02T17:01:59;6.2;5.8;4.1
45112;PMS5003;30873;53.908;27.576;2023-07-02T17:07:50;6.3;5.8;3.9
45112;PMS5003;30873;53.908;27.576;2023-07-02T17:12:36;6.4;5.5;3.8
45112;PMS5003;30873;53.908;27.576;2023-07-02T17:17:13;6.4;6;4.1
45112;PMS5003;30873;53.908;27.576;2023-07-02T17:22:50;5.8;5.1;3.4
45112;PMS5003;30873;53.908;27.576;2023-07-02T17:27:50;5.7;5.4;3.3
45112;PMS5003;30873;53.908;27.576;2023-07-02T17:32:10;5.1;4.9;3.2
45112;PMS5003;30873;53.908;27.576;2023-07-02T17:37:12;5.9;5.2;3.6
45112;PMS5003;30873;53.908;27.576;2023-07-02T17:42:36;5.3;5.2;3.6
45112;PMS5003;30873;53.908;27.576;2023-07-02T17:47:15;6;5.2;3.5
45112;PMS5003;30873;53.908;27.576;2023-07-02T17:52:34;4.9;4.7;3.1
45112;PMS5003;30873;53.908;27.576;2023-07-02T17:57:06;5.4;4.9;3.3
45112;PMS5003;30873;53.908;27.576;2023-07-02T18:02:20;5.6;4.9;3.6
45112;PMS5003;30873;53.908;27.576;2023-07-02T18:07:00;7.2;6.2;4.4
45112;PMS5003;30873;53.908;27.576;2023-07-02T18:12:21;8.3;7.9;5.7
45112;PMS5003;30873;53.908;27.576;2023-07-02T18:17:50;13.9;13.3;11.5
45112;PMS5003;30873;53.908;27.576;2023-07-02T18:22:36;17;16.7;15.3
45112;PMS5003;30873;53.908;27.576;2023-07-02T18:28:06;20.7;20;18.4
45112;PMS5003;30873;53.908;27.576;2023-07-02T18:32:18;16.8;16.2;14.6
45112;PMS5003;30873;53.908;27.576;2023-07-02T18:36:58;4.9;4.9;3.4
45112;PMS5003;30873;53.908;27.576;2023-07-02T18:41:58;5.1;4.7;3.2
45112;PMS5003;30873;53.908;27.576;2023-07-02T18:46:58;5.6;4.5;3.2
45112;PMS5003;30873;53.908;27.576;2023-07-02T18:51:58;6;5.7;3.5
45112;PMS5003;30873;53.908;27.576;2023-07-02T18:57:34;4.8;4.2;3.3
45112;PMS5003;30873;53.908;27.576;2023-07-02T19:02:35;5.4;4.6;2.8
45112;PMS5003;30873;53.908;27.576;2023-07-02T19:06:58;5.9;5.3;3.4
45112;PMS5003;30873;53.908;27.576;2023-07-02T19:11:58;5.7;4.7;3
45112;PMS5003;30873;53.908;27.576;2023-07-02T19:17:50;6.1;5.7;4
45112;PMS5003;30873;53.908;27.576;2023-07-02T19:22:50;5.9;5;3
45112;PMS5003;30873;53.908;27.576;2023-07-02T19:27:20;5.4;5;3.3
45112;PMS5003;30873;53.908;27.576;2023-07-02T19:32:06;6.3;5.4;3.9
45112;PMS5003;30873;53.908;27.576;2023-07-02T19:37:50;4.4;4.2;2.9
45112;PMS5003;30873;53.908;27.576;2023-07-02T19:42:28;5.1;4.6;3.5
45112;PMS5003;30873;53.908;27.576;2023-07-02T19:47:06;6.4;4.8;3.4
45112;PMS5003;30873;53.908;27.576;2023-07-02T19:52:20;6.3;5.1;3.4
45112;PMS5003;30873;53.908;27.576;2023-07-02T19:57:34;6.2;5;3.2
45112;PMS5003;30873;53.908;27.576;2023-07-02T20:02:50;5.8;5.3;3.5
45112;PMS5003;30873;53.908;27.576;2023-07-02T20:07:18;5.7;4.7;3
45112;PMS5003;30873;53.908;27.576;2023-07-02T20:12:50;5.4;4.7;3.3
45112;PMS5003;30873;53.908;27.576;2023-07-02T20:16:58;5.7;4.5;3.3
45112;PMS5003;30873;53.908;27.576;2023-07-02T20:22:50;6.2;5;3.2
45112;PMS5003;30873;53.908;27.576;2023-07-02T20:27:34;6.3;5.8;3.9
45112;PMS5003;30873;53.908;27.576;2023-07-02T20:32:34;6.7;6.1;3.9
45112;PMS5003;30873;53.908;27.576;2023-07-02T20:37:36;7.6;6.7;4.2
45112;PMS5003;30873;53.908;27.576;2023-07-02T20:42:34;7.6;6.8;4.2
45112;PMS5003;30873;53.908;27.576;2023-07-02T20:47:19;8.1;7.6;4.8
45112;PMS5003;30873;53.908;27.576;2023-07-02T20:52:07;7.6;6.7;4.5
45112;PMS5003;30873;53.908;27.576;2023-07-02T20:57:50;8.8;8.1;5
45112;PMS5003;30873;53.908;27.576;2023-07-02T21:02:36;8.4;7.8;5.1
45112;PMS5003;30873;53.908;27.576;2023-07-02T21:07:50;8.5;8;5.5
45112;PMS5003;30873;53.908;27.576;2023-07-02T21:12:50;8.7;8.1;5.6
45112;PMS5003;30873;53.908;27.576;2023-07-02T21:17:34;9;8.4;6.4
45112;PMS5003;30873;53.908;27.576;2023-07-02T21:22:20;9.4;8.9;6.8
45112;PMS5003;30873;53.908;27.576;2023-07-02T21:26:58;9.9;9.7;8
45112;PMS5003;30873;53.908;27.576;2023-07-02T21:32:50;12.6;11.5;9.5
45112;PMS5003;30873;53.908;27.576;2023-07-02T21:37:36;13.1;11.9;10.2
45112;PMS5003;30873;53.908;27.576;2023-07-02T21:42:20;14.7;14.3;11.9
45112;PMS5003;30873;53.908;27.576;2023-07-02T21:47:50;16.1;15.5;13.6
45112;PMS5003;30873;53.908;27.576;2023-07-02T21:52:50;15.4;15.1;13.1
45112;PMS5003;30873;53.908;27.576;2023-07-02T21:57:02;15.7;15.2;13.1
45112;PMS5003;30873;53.908;27.576;2023-07-02T22:02:20;15;14.5;12.1
45112;PMS5003;30873;53.908;27.576;2023-07-02T22:07:36;11.9;10.7;9.3
45112;PMS5003;30873;53.908;27.576;2023-07-02T22:12:36;9.9;9.2;7.3
45112;PMS5003;30873;53.908;27.576;2023-07-02T22:17:12;10;8.9;7.6
45112;PMS5003;30873;53.908;27.576;2023-07-02T22:22:18;11.4;10.5;8.9
45112;PMS5003;30873;53.908;27.576;2023-07-02T22:26:58;11.4;11.1;9.4
45112;PMS5003;30873;53.908;27.576;2023-07-02T22:32:20;12.4;11.8;9.6
45112;PMS5003;30873;53.908;27.576;2023-07-02T22:37:20;10.6;10.4;8.5
45112;PMS5003;30873;53.908;27.576;2023-07-02T22:42:50;10.1;9;7.4
45112;PMS5003;30873;53.908;27.576;2023-07-02T22:47:28;9.1;8.9;6.9
45112;PMS5003;30873;53.908;27.576;2023-07-02T22:52:34;9.4;8.6;7
45112;PMS5003;30873;53.908;27.576;2023-07-02T22:57:35;8.6;8.4;6.3
45112;PMS5003;30873;53.908;27.576;2023-07-02T23:02:18;8.6;7.7;5.3
45112;PMS5003;30873;53.908;27.576;2023-07-02T23:07:50;8.8;7.6;5.1
45112;PMS5003;30873;53.908;27.576;2023-07-02T23:12:20;8;7.5;4.8
45112;PMS5003;30873;53.908;27.576;2023-07-02T23:17:20;7.1;6.5;4.4
45112;PMS5003;30873;53.908;27.576;2023-07-02T23:22:34;6.9;6.5;4.2
45112;PMS5003;30873;53.908;27.576;2023-07-02T23:27:49;7.5;6.6;3.9
45112;PMS5003;30873;53.908;27.576;2023-07-02T23:31:58;7.6;6.5;3.9
45112;PMS5003;30873;53.908;27.576;2023-07-02T23:36:58;7;6;3.8
45112;PMS5003;30873;53.908;27.576;2023-07-02T23:42:50;7.4;6.3;4
45112;PMS5003;30873;53.908;27.576;2023-07-02T23:47:18;7.3;6.4;4.2
45112;PMS5003;30873;53.908;27.576;2023-07-02T23:51:58;7;6.8;4.1
45112;PMS5003;30873;53.908;27.576;2023-07-02T23:57:34;5.5;5.2;3.5
